sensor_id;sensor_type;location;lat;lon;timestamp;P1;durP1;ratioP1;P2;durP2;ratioP2
20828;SDS011;10575;50.124;8.582;2022-10-13T00:00:19;22.05;;;11.90;;
20828;SDS011;10575;50.124;8.582;2022-10-13T00:02:44;20.88;;;12.20;;
20828;SDS011;10575;50.124;8.582;2022-10-13T00:05:10;23.25;;;12.20;;
20828;SDS011;10575;50.124;8.582;2022-10-13T00:07:35;21.27;;;12.93;;
20828;SDS011;10575;50.124;8.582;2022-10-13T00:10:01;22.70;;;12.60;;
20828;SDS011;10575;50.124;8.582;2022-10-13T00:12:26;21.95;;;12.20;;
20828;SDS011;10575;50.124;8.582;2022-10-13T00:14:52;21.58;;;12.38;;
20828;SDS011;10575;50.124;8.582;2022-10-13T00:17:17;24.05;;;13.30;;
20828;SDS011;10575;50.124;8.582;2022-10-13T00:19:43;23.05;;;12.05;;
20828;SDS011;10575;50.124;8.582;2022-10-13T00:22:08;21.52;;;13.55;;
20828;SDS011;10575;50.124;8.582;2022-10-13T00:24:34;23.63;;;13.02;;
20828;SDS011;10575;50.124;8.582;2022-10-13T00:26:59;24.67;;;13.27;;
20828;SDS011;10575;50.124;8.582;2022-10-13T00:29:25;27.05;;;13.88;;
20828;SDS011;10575;50.124;8.582;2022-10-13T00:31:50;26.85;;;13.73;;
20828;SDS011;10575;50.124;8.582;2022-10-13T00:34:16;22.13;;;12.65;;
20828;SDS011;10575;50.124;8.582;2022-10-13T00:36:41;27.42;;;14.75;;
20828;SDS011;10575;50.124;8.582;2022-10-13T00:39:07;21.83;;;12.88;;
20828;SDS011;10575;50.124;8.582;2022-10-13T00:41:32;22.30;;;12.32;;
20828;SDS011;10575;50.124;8.582;2022-10-13T00:44:03;25.02;;;14.00;;
20828;SDS011;10575;50.124;8.582;2022-10-13T00:46:31;19.85;;;12.23;;
20828;SDS011;10575;50.124;8.582;2022-10-13T00:48:58;20.65;;;12.32;;
20828;SDS011;10575;50.124;8.582;2022-10-13T00:51:26;22.35;;;13.32;;
20828;SDS011;10575;50.124;8.582;2022-10-13T00:53:54;24.88;;;13.40;;
20828;SDS011;10575;50.124;8.582;2022-10-13T00:56:21;23.30;;;14.20;;
20828;SDS011;10575;50.124;8.582;2022-10-13T00:58:48;21.60;;;12.80;;
20828;SDS011;10575;50.124;8.582;2022-10-13T01:01:15;21.90;;;11.95;;
20828;SDS011;10575;50.124;8.582;2022-10-13T01:03:41;23.30;;;13.60;;
20828;SDS011;10575;50.124;8.582;2022-10-13T01:06:06;26.33;;;12.43;;
20828;SDS011;10575;50.124;8.582;2022-10-13T01:08:32;25.35;;;11.50;;
20828;SDS011;10575;50.124;8.582;2022-10-13T01:11:05;18.75;;;11.45;;
20828;SDS011;10575;50.124;8.582;2022-10-13T01:19:19;30.15;;;11.43;;
20828;SDS011;10575;50.124;8.582;2022-10-13T01:25:06;21.33;;;12.80;;
20828;SDS011;10575;50.124;8.582;2022-10-13T01:30:45;25.83;;;12.52;;
20828;SDS011;10575;50.124;8.582;2022-10-13T01:36:24;23.30;;;11.88;;
20828;SDS011;10575;50.124;8.582;2022-10-13T01:38:58;24.83;;;12.77;;
20828;SDS011;10575;50.124;8.582;2022-10-13T01:41:43;23.42;;;13.00;;
20828;SDS011;10575;50.124;8.582;2022-10-13T01:44:28;25.15;;;12.93;;
20828;SDS011;10575;50.124;8.582;2022-10-13T01:47:00;17.73;;;9.98;;
20828;SDS011;10575;50.124;8.582;2022-10-13T01:49:27;21.15;;;11.02;;
20828;SDS011;10575;50.124;8.582;2022-10-13T01:51:58;22.55;;;11.25;;
20828;SDS011;10575;50.124;8.582;2022-10-13T01:54:27;19.38;;;11.07;;
20828;SDS011;10575;50.124;8.582;2022-10-13T01:56:52;17.02;;;10.23;;
20828;SDS011;10575;50.124;8.582;2022-10-13T01:59:19;23.45;;;10.15;;
20828;SDS011;10575;50.124;8.582;2022-10-13T02:01:58;16.42;;;10.75;;
20828;SDS011;10575;50.124;8.582;2022-10-13T02:04:37;17.80;;;10.27;;
20828;SDS011;10575;50.124;8.582;2022-10-13T02:07:13;15.77;;;9.80;;
20828;SDS011;10575;50.124;8.582;2022-10-13T02:10:13;15.93;;;9.82;;
20828;SDS011;10575;50.124;8.582;2022-10-13T02:12:47;18.02;;;10.77;;
20828;SDS011;10575;50.124;8.582;2022-10-13T02:15:17;18.40;;;10.57;;
20828;SDS011;10575;50.124;8.582;2022-10-13T02:17:46;22.65;;;10.52;;
20828;SDS011;10575;50.124;8.582;2022-10-13T02:20:12;21.67;;;11.40;;
20828;SDS011;10575;50.124;8.582;2022-10-13T02:22:42;21.50;;;12.50;;
20828;SDS011;10575;50.124;8.582;2022-10-13T02:25:11;25.73;;;12.82;;
20828;SDS011;10575;50.124;8.582;2022-10-13T02:27:37;20.48;;;11.38;;
20828;SDS011;10575;50.124;8.582;2022-10-13T02:30:03;18.02;;;10.85;;
20828;SDS011;10575;50.124;8.582;2022-10-13T02:32:29;19.05;;;11.48;;
20828;SDS011;10575;50.124;8.582;2022-10-13T02:34:55;23.38;;;12.70;;
20828;SDS011;10575;50.124;8.582;2022-10-13T02:37:21;32.25;;;13.25;;
20828;SDS011;10575;50.124;8.582;2022-10-13T02:39:49;29.45;;;12.80;;
20828;SDS011;10575;50.124;8.582;2022-10-13T02:42:14;20.67;;;11.45;;
20828;SDS011;10575;50.124;8.582;2022-10-13T02:44:40;29.35;;;12.70;;
20828;SDS011;10575;50.124;8.582;2022-10-13T02:47:05;23.70;;;12.45;;
20828;SDS011;10575;50.124;8.582;2022-10-13T02:49:31;24.08;;;11.70;;
20828;SDS011;10575;50.124;8.582;2022-10-13T02:51:56;20.70;;;12.13;;
20828;SDS011;10575;50.124;8.582;2022-10-13T02:54:22;23.92;;;12.10;;
20828;SDS011;10575;50.124;8.582;2022-10-13T02:56:47;20.95;;;11.55;;
20828;SDS011;10575;50.124;8.582;2022-10-13T02:59:13;22.67;;;12.40;;
20828;SDS011;10575;50.124;8.582;2022-10-13T03:01:38;29.65;;;12.63;;
20828;SDS011;10575;50.124;8.582;2022-10-13T03:04:09;27.67;;;13.65;;
20828;SDS011;10575;50.124;8.582;2022-10-13T03:06:35;27.20;;;13.57;;
20828;SDS011;10575;50.124;8.582;2022-10-13T03:09:01;31.65;;;13.27;;
20828;SDS011;10575;50.124;8.582;2022-10-13T03:11:26;26.35;;;13.30;;
20828;SDS011;10575;50.124;8.582;2022-10-13T03:13:52;26.38;;;13.27;;
20828;SDS011;10575;50.124;8.582;2022-10-13T03:16:18;27.38;;;13.10;;
20828;SDS011;10575;50.124;8.582;2022-10-13T03:18:44;28.50;;;13.98;;
20828;SDS011;10575;50.124;8.582;2022-10-13T03:21:09;28.35;;;13.35;;
20828;SDS011;10575;50.124;8.582;2022-10-13T03:23:35;26.58;;;13.05;;
20828;SDS011;10575;50.124;8.582;2022-10-13T03:26:00;31.83;;;13.50;;
20828;SDS011;10575;50.124;8.582;2022-10-13T03:28:27;28.02;;;13.68;;
20828;SDS011;10575;50.124;8.582;2022-10-13T03:30:59;25.98;;;13.32;;
20828;SDS011;10575;50.124;8.582;2022-10-13T03:33:26;24.98;;;12.32;;
20828;SDS011;10575;50.124;8.582;2022-10-13T03:35:52;30.52;;;13.15;;
20828;SDS011;10575;50.124;8.582;2022-10-13T03:38:17;24.50;;;12.70;;
20828;SDS011;10575;50.124;8.582;2022-10-13T03:40:43;23.13;;;12.07;;
20828;SDS011;10575;50.124;8.582;2022-10-13T03:43:08;22.25;;;12.43;;
20828;SDS011;10575;50.124;8.582;2022-10-13T03:45:34;22.85;;;12.93;;
20828;SDS011;10575;50.124;8.582;2022-10-13T03:47:59;26.25;;;13.77;;
20828;SDS011;10575;50.124;8.582;2022-10-13T03:50:25;30.13;;;14.23;;
20828;SDS011;10575;50.124;8.582;2022-10-13T03:52:50;31.33;;;15.52;;
20828;SDS011;10575;50.124;8.582;2022-10-13T03:55:16;28.90;;;13.38;;
20828;SDS011;10575;50.124;8.582;2022-10-13T03:57:41;28.15;;;14.20;;
20828;SDS011;10575;50.124;8.582;2022-10-13T04:00:07;31.17;;;14.63;;
20828;SDS011;10575;50.124;8.582;2022-10-13T04:02:34;33.53;;;14.00;;
20828;SDS011;10575;50.124;8.582;2022-10-13T04:05:00;27.77;;;13.85;;
20828;SDS011;10575;50.124;8.582;2022-10-13T04:07:26;25.40;;;13.68;;
20828;SDS011;10575;50.124;8.582;2022-10-13T04:09:51;27.85;;;13.88;;
20828;SDS011;10575;50.124;8.582;2022-10-13T04:12:17;25.35;;;14.13;;
20828;SDS011;10575;50.124;8.582;2022-10-13T04:14:43;29.25;;;14.35;;
20828;SDS011;10575;50.124;8.582;2022-10-13T04:17:08;25.98;;;14.05;;
20828;SDS011;10575;50.124;8.582;2022-10-13T04:19:34;25.63;;;14.32;;
20828;SDS011;10575;50.124;8.582;2022-10-13T04:21:59;25.50;;;14.32;;
20828;SDS011;10575;50.124;8.582;2022-10-13T04:24:25;31.75;;;15.25;;
20828;SDS011;10575;50.124;8.582;2022-10-13T04:26:50;25.23;;;13.65;;
20828;SDS011;10575;50.124;8.582;2022-10-13T04:29:16;27.95;;;12.98;;
20828;SDS011;10575;50.124;8.582;2022-10-13T04:31:41;27.85;;;13.77;;
20828;SDS011;10575;50.124;8.582;2022-10-13T04:34:07;23.38;;;13.45;;
20828;SDS011;10575;50.124;8.582;2022-10-13T04:36:33;27.45;;;14.52;;
20828;SDS011;10575;50.124;8.582;2022-10-13T04:38:59;25.52;;;14.52;;
20828;SDS011;10575;50.124;8.582;2022-10-13T04:41:24;26.00;;;13.98;;
20828;SDS011;10575;50.124;8.582;2022-10-13T04:43:50;24.25;;;13.57;;
20828;SDS011;10575;50.124;8.582;2022-10-13T04:46:35;23.98;;;13.52;;
20828;SDS011;10575;50.124;8.582;2022-10-13T04:49:00;23.70;;;14.23;;
20828;SDS011;10575;50.124;8.582;2022-10-13T04:51:26;20.75;;;12.98;;
20828;SDS011;10575;50.124;8.582;2022-10-13T04:53:55;21.55;;;13.15;;
20828;SDS011;10575;50.124;8.582;2022-10-13T04:56:22;22.88;;;14.18;;
20828;SDS011;10575;50.124;8.582;2022-10-13T04:58:49;21.15;;;12.85;;
20828;SDS011;10575;50.124;8.582;2022-10-13T05:01:19;25.23;;;13.70;;
20828;SDS011;10575;50.124;8.582;2022-10-13T05:03:46;22.90;;;13.32;;
20828;SDS011;10575;50.124;8.582;2022-10-13T05:06:18;21.90;;;12.68;;
20828;SDS011;10575;50.124;8.582;2022-10-13T05:08:46;22.50;;;12.43;;
20828;SDS011;10575;50.124;8.582;2022-10-13T05:11:12;23.40;;;12.23;;
20828;SDS011;10575;50.124;8.582;2022-10-13T05:13:37;20.02;;;11.95;;
20828;SDS011;10575;50.124;8.582;2022-10-13T05:16:10;19.90;;;12.38;;
20828;SDS011;10575;50.124;8.582;2022-10-13T05:18:37;21.70;;;13.70;;
20828;SDS011;10575;50.124;8.582;2022-10-13T05:21:13;19.73;;;12.10;;
20828;SDS011;10575;50.124;8.582;2022-10-13T05:23:41;24.20;;;13.32;;
20828;SDS011;10575;50.124;8.582;2022-10-13T05:26:09;24.35;;;13.77;;
20828;SDS011;10575;50.124;8.582;2022-10-13T05:28:39;19.95;;;12.35;;
20828;SDS011;10575;50.124;8.582;2022-10-13T05:31:15;20.08;;;11.73;;
20828;SDS011;10575;50.124;8.582;2022-10-13T05:33:43;22.58;;;12.63;;
20828;SDS011;10575;50.124;8.582;2022-10-13T05:36:13;23.17;;;12.50;;
20828;SDS011;10575;50.124;8.582;2022-10-13T05:38:40;21.50;;;12.70;;
20828;SDS011;10575;50.124;8.582;2022-10-13T05:41:10;22.15;;;12.95;;
20828;SDS011;10575;50.124;8.582;2022-10-13T05:43:37;21.13;;;12.57;;
20828;SDS011;10575;50.124;8.582;2022-10-13T05:46:04;21.15;;;12.63;;
20828;SDS011;10575;50.124;8.582;2022-10-13T05:48:30;31.05;;;14.55;;
20828;SDS011;10575;50.124;8.582;2022-10-13T05:50:56;25.25;;;12.95;;
20828;SDS011;10575;50.124;8.582;2022-10-13T05:53:24;26.52;;;12.75;;
20828;SDS011;10575;50.124;8.582;2022-10-13T05:55:53;27.70;;;13.93;;
20828;SDS011;10575;50.124;8.582;2022-10-13T05:58:22;29.35;;;13.65;;
20828;SDS011;10575;50.124;8.582;2022-10-13T06:00:49;29.58;;;14.48;;
20828;SDS011;10575;50.124;8.582;2022-10-13T06:03:16;37.20;;;15.18;;
20828;SDS011;10575;50.124;8.582;2022-10-13T06:05:45;35.17;;;16.25;;
20828;SDS011;10575;50.124;8.582;2022-10-13T06:08:14;34.80;;;14.70;;
20828;SDS011;10575;50.124;8.582;2022-10-13T06:10:41;48.30;;;17.40;;
20828;SDS011;10575;50.124;8.582;2022-10-13T06:13:08;37.85;;;15.98;;
20828;SDS011;10575;50.124;8.582;2022-10-13T06:15:33;42.08;;;16.58;;
20828;SDS011;10575;50.124;8.582;2022-10-13T06:17:59;42.10;;;16.58;;
20828;SDS011;10575;50.124;8.582;2022-10-13T06:20:25;39.10;;;16.67;;
20828;SDS011;10575;50.124;8.582;2022-10-13T06:22:54;42.08;;;17.50;;
20828;SDS011;10575;50.124;8.582;2022-10-13T06:25:20;40.08;;;17.48;;
20828;SDS011;10575;50.124;8.582;2022-10-13T06:27:45;42.50;;;16.70;;
20828;SDS011;10575;50.124;8.582;2022-10-13T06:30:11;42.13;;;16.27;;
20828;SDS011;10575;50.124;8.582;2022-10-13T06:32:37;38.38;;;16.83;;
20828;SDS011;10575;50.124;8.582;2022-10-13T06:35:02;30.08;;;14.82;;
20828;SDS011;10575;50.124;8.582;2022-10-13T06:37:28;27.50;;;13.98;;
20828;SDS011;10575;50.124;8.582;2022-10-13T06:39:54;32.25;;;14.48;;
20828;SDS011;10575;50.124;8.582;2022-10-13T06:42:19;31.98;;;14.90;;
20828;SDS011;10575;50.124;8.582;2022-10-13T06:44:45;36.72;;;16.38;;
20828;SDS011;10575;50.124;8.582;2022-10-13T06:47:10;37.65;;;15.43;;
20828;SDS011;10575;50.124;8.582;2022-10-13T06:49:36;33.28;;;15.15;;
20828;SDS011;10575;50.124;8.582;2022-10-13T06:52:02;34.20;;;15.05;;
20828;SDS011;10575;50.124;8.582;2022-10-13T06:54:28;34.10;;;16.25;;
20828;SDS011;10575;50.124;8.582;2022-10-13T06:56:54;31.92;;;14.75;;
20828;SDS011;10575;50.124;8.582;2022-10-13T06:59:19;41.10;;;17.48;;
20828;SDS011;10575;50.124;8.582;2022-10-13T07:01:46;29.95;;;16.10;;
20828;SDS011;10575;50.124;8.582;2022-10-13T07:04:12;32.90;;;15.70;;
20828;SDS011;10575;50.124;8.582;2022-10-13T07:06:38;38.55;;;16.48;;
20828;SDS011;10575;50.124;8.582;2022-10-13T07:09:04;36.13;;;16.15;;
20828;SDS011;10575;50.124;8.582;2022-10-13T07:11:30;35.53;;;15.73;;
20828;SDS011;10575;50.124;8.582;2022-10-13T07:13:56;31.83;;;15.45;;
20828;SDS011;10575;50.124;8.582;2022-10-13T07:16:21;33.08;;;15.52;;
20828;SDS011;10575;50.124;8.582;2022-10-13T07:18:47;29.52;;;14.90;;
20828;SDS011;10575;50.124;8.582;2022-10-13T07:21:12;31.48;;;15.93;;
20828;SDS011;10575;50.124;8.582;2022-10-13T07:23:38;29.92;;;14.70;;
20828;SDS011;10575;50.124;8.582;2022-10-13T07:26:11;33.30;;;14.50;;
20828;SDS011;10575;50.124;8.582;2022-10-13T07:28:39;32.53;;;15.00;;
20828;SDS011;10575;50.124;8.582;2022-10-13T07:33:37;33.75;;;15.60;;
20828;SDS011;10575;50.124;8.582;2022-10-13T07:36:04;29.42;;;14.60;;
20828;SDS011;10575;50.124;8.582;2022-10-13T07:38:29;30.20;;;15.55;;
20828;SDS011;10575;50.124;8.582;2022-10-13T07:40:55;35.60;;;14.63;;
20828;SDS011;10575;50.124;8.582;2022-10-13T07:43:25;31.00;;;15.02;;
20828;SDS011;10575;50.124;8.582;2022-10-13T07:45:50;29.33;;;14.68;;
20828;SDS011;10575;50.124;8.582;2022-10-13T07:48:16;33.67;;;14.73;;
20828;SDS011;10575;50.124;8.582;2022-10-13T07:50:41;30.13;;;15.25;;
20828;SDS011;10575;50.124;8.582;2022-10-13T07:53:07;27.33;;;14.88;;
20828;SDS011;10575;50.124;8.582;2022-10-13T07:55:32;33.97;;;16.52;;
20828;SDS011;10575;50.124;8.582;2022-10-13T07:58:01;35.17;;;16.35;;
20828;SDS011;10575;50.124;8.582;2022-10-13T08:00:27;34.55;;;16.58;;
20828;SDS011;10575;50.124;8.582;2022-10-13T08:02:53;29.92;;;16.30;;
20828;SDS011;10575;50.124;8.582;2022-10-13T08:05:19;33.53;;;16.88;;
20828;SDS011;10575;50.124;8.582;2022-10-13T08:07:44;34.60;;;16.02;;
20828;SDS011;10575;50.124;8.582;2022-10-13T08:10:10;30.98;;;14.90;;
20828;SDS011;10575;50.124;8.582;2022-10-13T08:12:36;29.88;;;15.48;;
20828;SDS011;10575;50.124;8.582;2022-10-13T08:15:02;29.67;;;15.85;;
20828;SDS011;10575;50.124;8.582;2022-10-13T08:17:28;33.30;;;16.38;;
20828;SDS011;10575;50.124;8.582;2022-10-13T08:19:53;35.25;;;15.55;;
20828;SDS011;10575;50.124;8.582;2022-10-13T08:22:20;27.15;;;14.85;;
20828;SDS011;10575;50.124;8.582;2022-10-13T08:24:45;32.40;;;15.02;;
20828;SDS011;10575;50.124;8.582;2022-10-13T08:27:11;29.55;;;14.60;;
20828;SDS011;10575;50.124;8.582;2022-10-13T08:29:42;29.08;;;14.65;;
20828;SDS011;10575;50.124;8.582;2022-10-13T08:32:07;34.40;;;15.73;;
20828;SDS011;10575;50.124;8.582;2022-10-13T08:34:33;27.85;;;15.38;;
20828;SDS011;10575;50.124;8.582;2022-10-13T08:37:00;30.20;;;15.70;;
20828;SDS011;10575;50.124;8.582;2022-10-13T08:39:26;33.28;;;16.83;;
20828;SDS011;10575;50.124;8.582;2022-10-13T08:41:52;31.17;;;16.55;;
20828;SDS011;10575;50.124;8.582;2022-10-13T08:44:37;33.00;;;15.52;;
20828;SDS011;10575;50.124;8.582;2022-10-13T08:47:12;30.63;;;16.17;;
20828;SDS011;10575;50.124;8.582;2022-10-13T08:49:44;31.15;;;15.18;;
20828;SDS011;10575;50.124;8.582;2022-10-13T08:52:20;30.13;;;17.10;;
20828;SDS011;10575;50.124;8.582;2022-10-13T08:54:48;35.95;;;17.33;;
20828;SDS011;10575;50.124;8.582;2022-10-13T08:57:15;29.38;;;16.38;;
20828;SDS011;10575;50.124;8.582;2022-10-13T08:59:41;30.10;;;17.17;;
20828;SDS011;10575;50.124;8.582;2022-10-13T09:02:09;28.85;;;15.65;;
20828;SDS011;10575;50.124;8.582;2022-10-13T09:04:40;31.70;;;16.25;;
20828;SDS011;10575;50.124;8.582;2022-10-13T09:09:39;42.97;;;19.52;;
20828;SDS011;10575;50.124;8.582;2022-10-13T09:12:05;33.40;;;17.65;;
20828;SDS011;10575;50.124;8.582;2022-10-13T09:14:31;35.22;;;18.00;;
20828;SDS011;10575;50.124;8.582;2022-10-13T09:19:45;34.95;;;17.80;;
20828;SDS011;10575;50.124;8.582;2022-10-13T09:22:27;34.08;;;18.77;;
20828;SDS011;10575;50.124;8.582;2022-10-13T09:27:45;35.50;;;17.27;;
20828;SDS011;10575;50.124;8.582;2022-10-13T09:33:05;39.42;;;18.77;;
20828;SDS011;10575;50.124;8.582;2022-10-13T09:35:38;32.28;;;16.58;;
20828;SDS011;10575;50.124;8.582;2022-10-13T09:38:27;34.47;;;18.02;;
20828;SDS011;10575;50.124;8.582;2022-10-13T09:40:56;40.92;;;18.77;;
20828;SDS011;10575;50.124;8.582;2022-10-13T09:46:16;37.35;;;19.58;;
20828;SDS011;10575;50.124;8.582;2022-10-13T09:49:04;36.60;;;18.90;;
20828;SDS011;10575;50.124;8.582;2022-10-13T09:51:50;36.03;;;18.80;;
20828;SDS011;10575;50.124;8.582;2022-10-13T09:54:23;41.17;;;18.38;;
20828;SDS011;10575;50.124;8.582;2022-10-13T09:56:52;35.60;;;18.13;;
20828;SDS011;10575;50.124;8.582;2022-10-13T09:59:32;34.88;;;16.60;;
20828;SDS011;10575;50.124;8.582;2022-10-13T10:02:06;35.45;;;17.58;;
20828;SDS011;10575;50.124;8.582;2022-10-13T10:04:39;34.17;;;17.50;;
20828;SDS011;10575;50.124;8.582;2022-10-13T10:07:11;30.80;;;16.30;;
20828;SDS011;10575;50.124;8.582;2022-10-13T10:09:45;39.88;;;18.90;;
20828;SDS011;10575;50.124;8.582;2022-10-13T10:12:15;31.10;;;16.83;;
20828;SDS011;10575;50.124;8.582;2022-10-13T10:14:44;44.25;;;20.35;;
20828;SDS011;10575;50.124;8.582;2022-10-13T10:17:27;45.15;;;20.80;;
20828;SDS011;10575;50.124;8.582;2022-10-13T10:25:24;37.33;;;18.33;;
20828;SDS011;10575;50.124;8.582;2022-10-13T10:28:16;41.45;;;20.55;;
20828;SDS011;10575;50.124;8.582;2022-10-13T10:31:16;42.90;;;21.50;;
20828;SDS011;10575;50.124;8.582;2022-10-13T10:34:21;49.75;;;23.27;;
20828;SDS011;10575;50.124;8.582;2022-10-13T10:37:00;49.13;;;24.08;;
20828;SDS011;10575;50.124;8.582;2022-10-13T10:39:59;54.28;;;25.70;;
20828;SDS011;10575;50.124;8.582;2022-10-13T10:45:42;46.83;;;23.17;;
20828;SDS011;10575;50.124;8.582;2022-10-13T10:48:16;50.25;;;25.48;;
20828;SDS011;10575;50.124;8.582;2022-10-13T10:50:46;50.88;;;25.65;;
20828;SDS011;10575;50.124;8.582;2022-10-13T10:55:59;46.30;;;24.48;;
20828;SDS011;10575;50.124;8.582;2022-10-13T10:58:44;44.08;;;22.55;;
20828;SDS011;10575;50.124;8.582;2022-10-13T11:01:30;42.72;;;22.13;;
20828;SDS011;10575;50.124;8.582;2022-10-13T11:04:38;44.25;;;23.17;;
20828;SDS011;10575;50.124;8.582;2022-10-13T11:06:59;45.50;;;22.73;;
20828;SDS011;10575;50.124;8.582;2022-10-13T11:12:21;45.25;;;22.27;;
20828;SDS011;10575;50.124;8.582;2022-10-13T11:19:56;41.38;;;21.10;;
20828;SDS011;10575;50.124;8.582;2022-10-13T11:22:23;46.28;;;22.48;;
20828;SDS011;10575;50.124;8.582;2022-10-13T11:24:57;43.25;;;22.77;;
20828;SDS011;10575;50.124;8.582;2022-10-13T11:29:59;40.78;;;20.95;;
20828;SDS011;10575;50.124;8.582;2022-10-13T11:43:40;45.67;;;21.95;;
20828;SDS011;10575;50.124;8.582;2022-10-13T11:46:27;38.33;;;20.88;;
20828;SDS011;10575;50.124;8.582;2022-10-13T11:49:11;38.88;;;20.15;;
20828;SDS011;10575;50.124;8.582;2022-10-13T11:52:02;36.70;;;19.33;;
20828;SDS011;10575;50.124;8.582;2022-10-13T11:57:17;38.13;;;19.73;;
20828;SDS011;10575;50.124;8.582;2022-10-13T11:59:46;36.17;;;18.88;;
20828;SDS011;10575;50.124;8.582;2022-10-13T12:02:14;40.50;;;19.55;;
20828;SDS011;10575;50.124;8.582;2022-10-13T12:04:41;40.92;;;18.98;;
20828;SDS011;10575;50.124;8.582;2022-10-13T12:07:11;38.90;;;19.30;;
20828;SDS011;10575;50.124;8.582;2022-10-13T12:10:00;40.50;;;19.42;;
20828;SDS011;10575;50.124;8.582;2022-10-13T12:12:26;36.67;;;17.80;;
20828;SDS011;10575;50.124;8.582;2022-10-13T12:14:52;38.58;;;19.40;;
20828;SDS011;10575;50.124;8.582;2022-10-13T12:19:55;33.85;;;17.23;;
20828;SDS011;10575;50.124;8.582;2022-10-13T12:22:22;34.83;;;17.15;;
20828;SDS011;10575;50.124;8.582;2022-10-13T12:24:58;33.90;;;18.52;;
20828;SDS011;10575;50.124;8.582;2022-10-13T12:27:26;33.40;;;17.30;;
20828;SDS011;10575;50.124;8.582;2022-10-13T12:29:56;33.20;;;17.95;;
20828;SDS011;10575;50.124;8.582;2022-10-13T12:32:24;33.45;;;16.92;;
20828;SDS011;10575;50.124;8.582;2022-10-13T12:34:51;36.75;;;18.48;;
20828;SDS011;10575;50.124;8.582;2022-10-13T12:37:24;42.40;;;17.90;;
20828;SDS011;10575;50.124;8.582;2022-10-13T12:39:51;39.22;;;18.02;;
20828;SDS011;10575;50.124;8.582;2022-10-13T12:42:17;33.58;;;16.23;;
20828;SDS011;10575;50.124;8.582;2022-10-13T12:44:43;35.78;;;17.52;;
20828;SDS011;10575;50.124;8.582;2022-10-13T12:52:52;38.40;;;16.90;;
20828;SDS011;10575;50.124;8.582;2022-10-13T12:55:45;36.78;;;17.35;;
20828;SDS011;10575;50.124;8.582;2022-10-13T12:58:24;33.38;;;16.05;;
20828;SDS011;10575;50.124;8.582;2022-10-13T13:00:56;34.35;;;17.90;;
20828;SDS011;10575;50.124;8.582;2022-10-13T13:03:33;34.03;;;18.02;;
20828;SDS011;10575;50.124;8.582;2022-10-13T13:08:39;31.88;;;16.05;;
20828;SDS011;10575;50.124;8.582;2022-10-13T13:11:15;36.63;;;18.75;;
20828;SDS011;10575;50.124;8.582;2022-10-13T13:13:45;33.42;;;16.65;;
20828;SDS011;10575;50.124;8.582;2022-10-13T13:16:17;35.17;;;18.13;;
20828;SDS011;10575;50.124;8.582;2022-10-13T13:18:48;35.03;;;16.05;;
20828;SDS011;10575;50.124;8.582;2022-10-13T13:21:16;35.30;;;15.80;;
20828;SDS011;10575;50.124;8.582;2022-10-13T13:23:46;35.15;;;18.00;;
20828;SDS011;10575;50.124;8.582;2022-10-13T13:26:13;32.40;;;16.55;;
20828;SDS011;10575;50.124;8.582;2022-10-13T13:28:45;33.13;;;16.55;;
20828;SDS011;10575;50.124;8.582;2022-10-13T13:31:12;33.35;;;16.02;;
20828;SDS011;10575;50.124;8.582;2022-10-13T13:33:38;26.35;;;14.02;;
20828;SDS011;10575;50.124;8.582;2022-10-13T13:36:09;35.65;;;16.67;;
20828;SDS011;10575;50.124;8.582;2022-10-13T13:38:42;31.02;;;15.50;;
20828;SDS011;10575;50.124;8.582;2022-10-13T13:41:11;30.17;;;14.30;;
20828;SDS011;10575;50.124;8.582;2022-10-13T13:43:37;30.52;;;14.10;;
20828;SDS011;10575;50.124;8.582;2022-10-13T13:46:04;27.83;;;15.75;;
20828;SDS011;10575;50.124;8.582;2022-10-13T13:48:31;30.30;;;15.85;;
20828;SDS011;10575;50.124;8.582;2022-10-13T13:50:57;29.95;;;15.45;;
20828;SDS011;10575;50.124;8.582;2022-10-13T13:53:23;32.97;;;16.42;;
20828;SDS011;10575;50.124;8.582;2022-10-13T13:55:48;31.45;;;16.67;;
20828;SDS011;10575;50.124;8.582;2022-10-13T13:58:14;30.88;;;16.60;;
20828;SDS011;10575;50.124;8.582;2022-10-13T14:00:39;41.35;;;16.05;;
20828;SDS011;10575;50.124;8.582;2022-10-13T14:03:05;34.78;;;16.70;;
20828;SDS011;10575;50.124;8.582;2022-10-13T14:05:31;30.35;;;16.10;;
20828;SDS011;10575;50.124;8.582;2022-10-13T14:07:56;23.92;;;13.55;;
20828;SDS011;10575;50.124;8.582;2022-10-13T14:10:23;29.63;;;15.55;;
20828;SDS011;10575;50.124;8.582;2022-10-13T14:12:50;26.17;;;14.13;;
20828;SDS011;10575;50.124;8.582;2022-10-13T14:15:16;31.98;;;14.40;;
20828;SDS011;10575;50.124;8.582;2022-10-13T14:17:42;28.27;;;15.90;;
20828;SDS011;10575;50.124;8.582;2022-10-13T14:20:09;24.40;;;12.38;;
20828;SDS011;10575;50.124;8.582;2022-10-13T14:22:38;29.08;;;14.35;;
20828;SDS011;10575;50.124;8.582;2022-10-13T14:25:04;24.92;;;13.40;;
20828;SDS011;10575;50.124;8.582;2022-10-13T14:27:31;30.67;;;16.70;;
20828;SDS011;10575;50.124;8.582;2022-10-13T14:29:58;27.58;;;15.63;;
20828;SDS011;10575;50.124;8.582;2022-10-13T14:32:23;30.70;;;15.43;;
20828;SDS011;10575;50.124;8.582;2022-10-13T14:34:49;26.38;;;14.48;;
20828;SDS011;10575;50.124;8.582;2022-10-13T14:37:14;25.08;;;14.20;;
20828;SDS011;10575;50.124;8.582;2022-10-13T14:39:40;28.83;;;16.95;;
20828;SDS011;10575;50.124;8.582;2022-10-13T14:42:05;28.20;;;14.20;;
20828;SDS011;10575;50.124;8.582;2022-10-13T14:44:31;27.58;;;14.48;;
20828;SDS011;10575;50.124;8.582;2022-10-13T14:46:56;25.23;;;15.13;;
20828;SDS011;10575;50.124;8.582;2022-10-13T14:49:22;28.17;;;15.82;;
20828;SDS011;10575;50.124;8.582;2022-10-13T14:51:47;32.28;;;15.65;;
20828;SDS011;10575;50.124;8.582;2022-10-13T14:54:13;24.92;;;14.25;;
20828;SDS011;10575;50.124;8.582;2022-10-13T14:56:38;25.60;;;14.10;;
20828;SDS011;10575;50.124;8.582;2022-10-13T14:59:04;26.88;;;15.35;;
20828;SDS011;10575;50.124;8.582;2022-10-13T15:01:31;30.08;;;16.33;;
20828;SDS011;10575;50.124;8.582;2022-10-13T15:03:58;28.08;;;15.75;;
20828;SDS011;10575;50.124;8.582;2022-10-13T15:06:25;27.40;;;15.82;;
20828;SDS011;10575;50.124;8.582;2022-10-13T15:08:51;29.80;;;16.20;;
20828;SDS011;10575;50.124;8.582;2022-10-13T15:11:17;26.02;;;15.52;;
20828;SDS011;10575;50.124;8.582;2022-10-13T15:13:45;41.17;;;21.88;;
20828;SDS011;10575;50.124;8.582;2022-10-13T15:16:14;38.03;;;23.02;;
20828;SDS011;10575;50.124;8.582;2022-10-13T15:18:44;26.88;;;15.60;;
20828;SDS011;10575;50.124;8.582;2022-10-13T15:21:10;30.65;;;15.65;;
20828;SDS011;10575;50.124;8.582;2022-10-13T15:23:36;26.15;;;15.90;;
20828;SDS011;10575;50.124;8.582;2022-10-13T15:26:02;25.80;;;15.68;;
20828;SDS011;10575;50.124;8.582;2022-10-13T15:28:29;29.88;;;16.95;;
20828;SDS011;10575;50.124;8.582;2022-10-13T15:31:02;34.20;;;18.15;;
20828;SDS011;10575;50.124;8.582;2022-10-13T15:33:28;29.42;;;16.58;;
20828;SDS011;10575;50.124;8.582;2022-10-13T15:35:54;26.92;;;17.33;;
20828;SDS011;10575;50.124;8.582;2022-10-13T15:38:20;29.05;;;15.20;;
20828;SDS011;10575;50.124;8.582;2022-10-13T15:40:46;25.75;;;15.25;;
20828;SDS011;10575;50.124;8.582;2022-10-13T15:43:12;31.40;;;19.15;;
20828;SDS011;10575;50.124;8.582;2022-10-13T15:45:38;24.73;;;16.05;;
20828;SDS011;10575;50.124;8.582;2022-10-13T15:48:04;28.15;;;17.17;;